KOPN

Thomaston-Upson County Airport

Thomaston, Georgia, USA
METAR KOPN 240755Z AUTO 28003KT 10SM -RA BKN004 OVC010 22/20 A3008 RMK AO2 LTG DSNT SW AND W
Observed Flight Rules
May-24 @ 07:55 UTC (17 minutes ago) Instrument Flight Rules
Wind Visibility Clouds Conditions
280° at 3 knots 10 miles
  • Broken at 400' AGL
  • Overcast at 1,000' AGL
  • Light Rain
Temperatures Readings
Current 22°C / 72°F
Dewpoint 20°C / 68°F
Humidity 88%
Altimeter 30.08" Hg
Pressure 1019 hPa
Elevation 243
METAR KOPN 240755Z AUTO 28003KT 10SM -RA BKN004 OVC010 22/20 A3008 RMK AO2 LTG DSNT SW AND W
Observed Flight Rules
May-24 @ 07:55 UTC
(17 minutes ago)
LIFR
Wind Visibility
280° at 3 knots 10 miles
Clouds
  • Broken at 400' AGL
  • Overcast at 1,000' AGL
Conditions
  • Light Rain
Temperature Dewpoint
22°C / 72°F 20°C / 68°F
Humidity Altimeter Pressure
88% 30.08" Hg 1019 hPa